MSC Jordan — HPMK — position and weather

sailwx.info

Track history (hours):
 
Tides and Currents Weather Stations Pressure Air Temp Water Temp Dewpoint Dewpoint Depression Visibility Wind Speed Wind Dir Waves Ship Positions

MSC Jordan

Last reported at 2014-Oct-24 11:31 UTC. Time now 2014-Oct-24 12:02 UTC.
Position N 53°34' E 008°32'.

Length 237 m; draft 8.7 m.

Type: Ship. MMSI: 355194000.

Date/timePositionNaut miles runAvg speedWind from/ knotsBaromVisibWave heightAir tempDewpointWater temp
2014-Oct-24 11:31N 53°34' E 008°32'3 3.3
2014-Oct-24 10:33N 53°37' E 008°29'1413.9
2014-Oct-24 09:33N 53°46' E 008°11'6816.6
2014-Oct-24 05:29N 53°43' E 006°17'1819.5
2014-Oct-24 04:34N 53°38' E 005°48'1919.4
2014-Oct-24 03:34N 53°33' E 005°16'2019.8
2014-Oct-24 02:34N 53°25' E 004°46'2120.6
2014-Oct-24 01:33N 53°08' E 004°27'2020.5
2014-Oct-24 00:34N 52°50' E 004°12'2120.3
2014-Oct-23 23:33N 52°34' E 003°49'1919.3
2014-Oct-23 22:32N 52°18' E 003°31'1919.3
2014-Oct-23 21:32N 51°59' E 003°24'1716.6
2014-Oct-23 20:32N 51°45' E 003°11'1414.9
2014-Oct-23 19:34N 51°31' E 003°04'1111.0
2014-Oct-23 18:33N 51°24' E 003°19'1414.1
2014-Oct-23 17:33N 51°26' E 003°41'1212.1
2014-Oct-23 16:33N 51°26' E 004°01'1211.6
2014-Oct-23 15:34N 51°21' E 004°17'0 0.0
2014-Oct-23 14:33N 51°21' E 004°17'1 0.5
2014-Oct-23 13:33N 51°21' E 004°18'2 1.7
2014-Oct-23 12:34N 51°20' E 004°20'0 0.2
2014-Oct-23 11:20N 51°20' E 004°21'0 0.0
2014-Oct-23 10:20N 51°20' E 004°21'0 0.3
2014-Oct-23 09:33N 51°20' E 004°21'0 0.2
2014-Oct-23 08:31N 51°20' E 004°21'0 0.0
2014-Oct-23 07:26N 51°20' E 004°21'0 0.0
2014-Oct-23 06:30N 51°20' E 004°21'0 0.0
2014-Oct-23 05:31N 51°20' E 004°21'0 0.0
2014-Oct-23 04:31N 51°20' E 004°21'0 0.0
2014-Oct-23 03:25N 51°20' E 004°21'0 0.0
2014-Oct-23 02:25N 51°20' E 004°21'0 0.0
2014-Oct-23 01:29N 51°20' E 004°21'0 0.0
2014-Oct-23 00:29N 51°20' E 004°21'0 0.0
2014-Oct-22 23:32N 51°20' E 004°21'0 0.0
2014-Oct-22 22:33N 51°20' E 004°21'0 0.0
2014-Oct-22 21:30N 51°20' E 004°21'0 0.0
2014-Oct-22 20:27N 51°20' E 004°21'0 0.0
2014-Oct-22 19:33N 51°20' E 004°21'0 0.0
2014-Oct-22 18:27N 51°20' E 004°21'0 0.0
2014-Oct-22 17:33N 51°20' E 004°21'0 0.0
2014-Oct-22 16:30N 51°20' E 004°21'0 0.0
2014-Oct-22 15:33N 51°20' E 004°21'0 0.0
2014-Oct-22 14:33N 51°20' E 004°21'0 0.0
2014-Oct-22 13:30N 51°20' E 004°21'0 0.0
2014-Oct-22 12:30N 51°20' E 004°21'0 0.0
2014-Oct-22 11:25N 51°20' E 004°21'0 0.0
2014-Oct-22 10:31N 51°20' E 004°21'0 0.0
2014-Oct-22 09:32N 51°20' E 004°21'0 0.0
2014-Oct-22 08:32N 51°20' E 004°21'0 0.0
2014-Oct-22 07:29N 51°20' E 004°21'0 0.0
2014-Oct-22 06:32N 51°20' E 004°21'0 0.0
2014-Oct-22 05:32N 51°20' E 004°21'0 0.0
2014-Oct-22 04:29N 51°20' E 004°21'0 0.0
2014-Oct-22 03:30N 51°20' E 004°21'0 0.0
2014-Oct-22 02:29N 51°20' E 004°21'0 0.0
2014-Oct-22 01:29N 51°20' E 004°21'0 0.0
2014-Oct-22 00:32N 51°20' E 004°21'0 0.0
2014-Oct-21 23:32N 51°20' E 004°21'0 0.0
2014-Oct-21 22:29N 51°20' E 004°21'0 0.3
2014-Oct-21 21:33N 51°20' E 004°20'2 2.2
2014-Oct-21 20:34N 51°21' E 004°17'0 0.2
2014-Oct-21 19:34N 51°21' E 004°17'5 5.2
2014-Oct-21 18:33N 51°23' E 004°09'8 8.4
2014-Oct-21 17:34N 51°22' E 003°56'1111.3
2014-Oct-21 16:34N 51°26' E 003°39'7 7.2
2014-Oct-21 15:33N 51°25' E 003°27'10 9.7
2014-Oct-21 14:33N 51°24' E 003°12'1412.3
2014-Oct-21 13:25N 51°25' E 002°49'3 3.7
2014-Oct-21 12:33N 51°22' E 002°50'7 6.6
2014-Oct-21 11:33N 51°23' E 002°40'1313.0
2014-Oct-21 10:33N 51°20' E 002°20'1616.3
2014-Oct-21 09:33N 51°12' E 001°57'2121.0
2014-Oct-21 08:33N 50°57' E 001°33'87918.3
2014-Oct-19 08:24N 38°44' W 009°52'2219.9
2014-Oct-19 07:18N 38°22' W 009°51'1519.9
2014-Oct-19 06:33N 38°08' W 009°51'2020.0
2014-Oct-19 05:33N 37°47' W 009°53'2120.0
2014-Oct-19 04:31N 37°27' W 009°53'1919.9
2014-Oct-19 03:33N 37°08' W 009°54'  
Track history (hours):
 
Tides and Currents Weather Stations Pressure Air Temp Water Temp Dewpoint Dewpoint Depression Visibility Wind Speed Wind Dir Waves Ship Positions

MSC Jordan

Last reported at 2014-Oct-24 11:31 UTC. Time now 2014-Oct-24 12:02 UTC.
Position N 53°34' E 008°32'.

Length 237 m; draft 8.7 m.

Type: Ship. MMSI: 355194000.

Date/timePositionNaut miles runAvg speedWind from/ knotsBaromVisibWave heightAir tempDewpointWater temp
2014-Oct-24 11:31N 53°34' E 008°32'3 3.3
2014-Oct-24 10:33N 53°37' E 008°29'1413.9
2014-Oct-24 09:33N 53°46' E 008°11'6816.6
2014-Oct-24 05:29N 53°43' E 006°17'1819.5
2014-Oct-24 04:34N 53°38' E 005°48'1919.4
2014-Oct-24 03:34N 53°33' E 005°16'2019.8
2014-Oct-24 02:34N 53°25' E 004°46'2120.6
2014-Oct-24 01:33N 53°08' E 004°27'2020.5
2014-Oct-24 00:34N 52°50' E 004°12'2120.3
2014-Oct-23 23:33N 52°34' E 003°49'1919.3
2014-Oct-23 22:32N 52°18' E 003°31'1919.3
2014-Oct-23 21:32N 51°59' E 003°24'1716.6
2014-Oct-23 20:32N 51°45' E 003°11'1414.9
2014-Oct-23 19:34N 51°31' E 003°04'1111.0
2014-Oct-23 18:33N 51°24' E 003°19'1414.1
2014-Oct-23 17:33N 51°26' E 003°41'1212.1
2014-Oct-23 16:33N 51°26' E 004°01'1211.6
2014-Oct-23 15:34N 51°21' E 004°17'0 0.0
2014-Oct-23 14:33N 51°21' E 004°17'1 0.5
2014-Oct-23 13:33N 51°21' E 004°18'2 1.7
2014-Oct-23 12:34N 51°20' E 004°20'0 0.2
2014-Oct-23 11:20N 51°20' E 004°21'0 0.0
2014-Oct-23 10:20N 51°20' E 004°21'0 0.3
2014-Oct-23 09:33N 51°20' E 004°21'0 0.2
2014-Oct-23 08:31N 51°20' E 004°21'0 0.0
2014-Oct-23 07:26N 51°20' E 004°21'0 0.0
2014-Oct-23 06:30N 51°20' E 004°21'0 0.0
2014-Oct-23 05:31N 51°20' E 004°21'0 0.0
2014-Oct-23 04:31N 51°20' E 004°21'0 0.0
2014-Oct-23 03:25N 51°20' E 004°21'0 0.0
2014-Oct-23 02:25N 51°20' E 004°21'0 0.0
2014-Oct-23 01:29N 51°20' E 004°21'0 0.0
2014-Oct-23 00:29N 51°20' E 004°21'0 0.0
2014-Oct-22 23:32N 51°20' E 004°21'0 0.0
2014-Oct-22 22:33N 51°20' E 004°21'0 0.0
2014-Oct-22 21:30N 51°20' E 004°21'0 0.0
2014-Oct-22 20:27N 51°20' E 004°21'0 0.0
2014-Oct-22 19:33N 51°20' E 004°21'0 0.0
2014-Oct-22 18:27N 51°20' E 004°21'0 0.0
2014-Oct-22 17:33N 51°20' E 004°21'0 0.0
2014-Oct-22 16:30N 51°20' E 004°21'0 0.0
2014-Oct-22 15:33N 51°20' E 004°21'0 0.0
2014-Oct-22 14:33N 51°20' E 004°21'0 0.0
2014-Oct-22 13:30N 51°20' E 004°21'0 0.0
2014-Oct-22 12:30N 51°20' E 004°21'0 0.0
2014-Oct-22 11:25N 51°20' E 004°21'0 0.0
2014-Oct-22 10:31N 51°20' E 004°21'0 0.0
2014-Oct-22 09:32N 51°20' E 004°21'0 0.0
2014-Oct-22 08:32N 51°20' E 004°21'0 0.0
2014-Oct-22 07:29N 51°20' E 004°21'0 0.0
2014-Oct-22 06:32N 51°20' E 004°21'0 0.0
2014-Oct-22 05:32N 51°20' E 004°21'0 0.0
2014-Oct-22 04:29N 51°20' E 004°21'0 0.0
2014-Oct-22 03:30N 51°20' E 004°21'0 0.0
2014-Oct-22 02:29N 51°20' E 004°21'0 0.0
2014-Oct-22 01:29N 51°20' E 004°21'0 0.0
2014-Oct-22 00:32N 51°20' E 004°21'0 0.0
2014-Oct-21 23:32N 51°20' E 004°21'0 0.0
2014-Oct-21 22:29N 51°20' E 004°21'0 0.3
2014-Oct-21 21:33N 51°20' E 004°20'2 2.2
2014-Oct-21 20:34N 51°21' E 004°17'0 0.2
2014-Oct-21 19:34N 51°21' E 004°17'5 5.2
2014-Oct-21 18:33N 51°23' E 004°09'8 8.4
2014-Oct-21 17:34N 51°22' E 003°56'1111.3
2014-Oct-21 16:34N 51°26' E 003°39'7 7.2
2014-Oct-21 15:33N 51°25' E 003°27'10 9.7
2014-Oct-21 14:33N 51°24' E 003°12'1412.3
2014-Oct-21 13:25N 51°25' E 002°49'3 3.7
2014-Oct-21 12:33N 51°22' E 002°50'7 6.6
2014-Oct-21 11:33N 51°23' E 002°40'1313.0
2014-Oct-21 10:33N 51°20' E 002°20'1616.3
2014-Oct-21 09:33N 51°12' E 001°57'2121.0
2014-Oct-21 08:33N 50°57' E 001°33'87918.3
2014-Oct-19 08:24N 38°44' W 009°52'2219.9
2014-Oct-19 07:18N 38°22' W 009°51'1519.9
2014-Oct-19 06:33N 38°08' W 009°51'2020.0
2014-Oct-19 05:33N 37°47' W 009°53'2120.0
2014-Oct-19 04:31N 37°27' W 009°53'1919.9
2014-Oct-19 03:33N 37°08' W 009°54'  

Dump ship's entire track history